createdAt,value
2022-12-16T00:02:01.601Z,2.30
2022-12-16T00:04:28.327Z,2.30
2022-12-16T00:06:54.917Z,2.20
2022-12-16T00:09:21.481Z,2.30
2022-12-16T00:11:48.058Z,2.30
2022-12-16T00:14:14.657Z,2.30
2022-12-16T00:16:41.370Z,2.30
2022-12-16T00:19:08.019Z,2.30
2022-12-16T00:21:35.038Z,2.40
2022-12-16T00:24:01.603Z,2.40
2022-12-16T00:26:29.730Z,2.40
2022-12-16T00:28:56.518Z,2.40
2022-12-16T00:31:23.493Z,2.40
2022-12-16T00:33:50.229Z,2.30
2022-12-16T00:36:17.149Z,2.30
2022-12-16T00:38:43.884Z,2.30
2022-12-16T00:41:10.564Z,2.40
2022-12-16T00:43:37.155Z,2.30
2022-12-16T00:46:04.077Z,2.40
2022-12-16T00:48:30.695Z,4.40
2022-12-16T00:50:57.338Z,2.40
2022-12-16T00:53:24.504Z,2.40
2022-12-16T00:55:51.537Z,2.40
2022-12-16T00:58:18.681Z,2.50
2022-12-16T01:00:45.361Z,2.40
2022-12-16T01:03:16.719Z,2.40
2022-12-16T01:05:46.192Z,2.50
2022-12-16T01:08:12.898Z,2.50
2022-12-16T01:10:39.487Z,2.40
2022-12-16T01:13:06.088Z,2.80
2022-12-16T01:15:32.922Z,2.40
2022-12-16T01:17:59.501Z,2.40
2022-12-16T01:20:26.082Z,2.40
2022-12-16T01:22:52.656Z,2.50
2022-12-16T01:25:19.263Z,2.50
2022-12-16T01:27:45.864Z,2.50
2022-12-16T01:30:12.751Z,2.50
2022-12-16T01:32:39.416Z,2.50
2022-12-16T01:35:17.948Z,2.50
2022-12-16T01:37:50.131Z,2.50
2022-12-16T01:40:18.149Z,2.50
2022-12-16T01:42:45.286Z,2.50
2022-12-16T01:45:32.935Z,2.50
2022-12-16T01:48:03.428Z,2.50
2022-12-16T01:50:30.791Z,2.50
2022-12-16T01:55:26.751Z,2.50
2022-12-16T01:57:58.090Z,2.50
2022-12-16T02:00:25.092Z,2.50
2022-12-16T02:02:53.398Z,2.50
2022-12-16T02:05:20.394Z,2.50
2022-12-16T02:07:53.013Z,2.50
2022-12-16T02:12:46.628Z,2.50
2022-12-16T02:15:24.959Z,2.50
2022-12-16T02:18:09.909Z,2.40
2022-12-16T02:21:06.047Z,2.40
2022-12-16T02:23:56.184Z,2.40
2022-12-16T02:26:35.679Z,2.40
2022-12-16T02:29:30.859Z,2.40
2022-12-16T02:34:49.444Z,2.40
2022-12-16T02:37:37.926Z,2.40
2022-12-16T02:40:11.426Z,2.40
2022-12-16T02:42:41.818Z,2.40
2022-12-16T02:47:35.468Z,2.40
2022-12-16T02:50:02.774Z,2.40
2022-12-16T02:52:30.762Z,2.40
2022-12-16T02:57:33.574Z,2.50
2022-12-16T03:00:03.730Z,2.40
2022-12-16T03:02:45.862Z,2.50
2022-12-16T03:05:16.727Z,2.50
2022-12-16T03:07:44.913Z,2.50
2022-12-16T03:10:14.209Z,2.50
2022-12-16T03:12:42.413Z,2.50
2022-12-16T03:15:10.401Z,2.50
2022-12-16T03:17:37.546Z,2.50
2022-12-16T03:20:09.127Z,2.50
2022-12-16T03:22:37.970Z,2.50
2022-12-16T03:25:05.927Z,2.40
2022-12-16T03:27:46.226Z,2.40
2022-12-16T03:30:22.849Z,2.40
2022-12-16T03:32:49.417Z,2.40
2022-12-16T03:35:21.787Z,2.40
2022-12-16T03:37:49.935Z,2.40
2022-12-16T03:40:17.144Z,2.30
2022-12-16T03:42:44.405Z,2.20
2022-12-16T03:45:13.187Z,2.20
2022-12-16T03:47:40.133Z,2.10
2022-12-16T03:50:07.221Z,2.10
2022-12-16T03:52:33.800Z,2.10
2022-12-16T03:57:28.251Z,1.90
2022-12-16T03:59:54.846Z,1.80
2022-12-16T04:02:21.579Z,1.80
2022-12-16T04:04:48.360Z,1.80
2022-12-16T04:07:20.798Z,1.70
2022-12-16T04:09:51.323Z,1.60
2022-12-16T04:12:36.878Z,1.60
2022-12-16T04:15:22.403Z,1.60
2022-12-16T04:18:07.443Z,1.60
2022-12-16T04:20:55.580Z,1.50
2022-12-16T04:23:43.308Z,1.50
2022-12-16T04:26:09.995Z,1.40
2022-12-16T04:28:36.716Z,1.40
2022-12-16T04:31:03.461Z,1.30
2022-12-16T04:33:48.858Z,1.30
2022-12-16T04:36:33.939Z,1.30
2022-12-16T04:39:18.898Z,1.30
2022-12-16T04:42:03.943Z,1.40
2022-12-16T04:44:49.515Z,1.40
2022-12-16T04:47:34.839Z,1.50
2022-12-16T04:50:20.157Z,1.40
2022-12-16T04:53:08.708Z,1.30
2022-12-16T04:55:54.601Z,1.40
2022-12-16T04:58:41.019Z,1.40
2022-12-16T05:01:26.436Z,1.40
2022-12-16T05:04:11.825Z,1.30
2022-12-16T05:06:57.038Z,1.40
2022-12-16T05:09:42.426Z,1.40
2022-12-16T05:12:47.305Z,1.30
2022-12-16T05:15:32.530Z,1.30
2022-12-16T05:18:17.930Z,1.30
2022-12-16T05:21:02.955Z,1.40
2022-12-16T05:23:48.048Z,1.40
2022-12-16T05:26:33.076Z,1.40
2022-12-16T05:29:18.188Z,1.40
2022-12-16T05:32:03.412Z,1.40
2022-12-16T05:34:48.572Z,1.40
2022-12-16T05:37:33.766Z,1.40
2022-12-16T05:43:06.163Z,1.40
2022-12-16T05:45:51.207Z,1.40
2022-12-16T05:48:36.806Z,1.30
2022-12-16T05:51:22.467Z,1.30
2022-12-16T05:54:07.720Z,1.30
2022-12-16T05:56:52.919Z,1.30
2022-12-16T05:59:37.863Z,1.20
2022-12-16T06:02:33.578Z,1.20
2022-12-16T06:05:18.775Z,1.20
2022-12-16T06:08:08.882Z,1.20
2022-12-16T06:10:54.128Z,1.20
2022-12-16T06:13:39.484Z,1.10
2022-12-16T06:16:24.634Z,1.20
2022-12-16T06:19:09.771Z,1.20
2022-12-16T06:21:54.791Z,1.10
2022-12-16T06:24:39.805Z,1.20
2022-12-16T06:27:24.890Z,1.10
2022-12-16T06:30:09.810Z,1.10
2022-12-16T06:32:54.874Z,1.10
2022-12-16T06:35:40.439Z,1.10
2022-12-16T06:38:25.710Z,1.10
2022-12-16T06:41:10.783Z,1.00
2022-12-16T06:43:57.641Z,1.00
2022-12-16T06:46:42.742Z,1.00
2022-12-16T06:49:27.971Z,1.00
2022-12-16T06:52:13.238Z,1.00
2022-12-16T06:54:58.483Z,1.00
2022-12-16T06:57:43.728Z,1.10
2022-12-16T07:00:29.030Z,1.10
2022-12-16T07:03:14.442Z,1.10
2022-12-16T07:05:59.594Z,1.10
2022-12-16T07:08:46.672Z,3.90
2022-12-16T07:11:31.734Z,1.10
2022-12-16T07:14:16.842Z,1.10
2022-12-16T07:17:01.901Z,1.00
2022-12-16T07:19:46.920Z,1.00
2022-12-16T07:22:32.406Z,0.90
2022-12-16T07:25:17.445Z,0.90
2022-12-16T07:28:10.706Z,1.00
2022-12-16T07:31:00.399Z,1.00
2022-12-16T07:33:45.980Z,1.00
2022-12-16T07:36:31.316Z,0.80
2022-12-16T07:39:16.527Z,0.80
2022-12-16T07:42:01.963Z,0.80
2022-12-16T07:44:47.464Z,0.90
2022-12-16T07:47:32.597Z,0.90
2022-12-16T07:50:17.921Z,1.00
2022-12-16T07:53:03.262Z,0.90
2022-12-16T07:55:48.293Z,1.00
2022-12-16T07:58:33.570Z,1.00
2022-12-16T08:01:19.614Z,0.90
2022-12-16T08:04:04.965Z,1.00
2022-12-16T08:06:50.122Z,1.00
2022-12-16T08:09:35.168Z,1.00
2022-12-16T08:12:20.358Z,1.00
2022-12-16T08:15:05.769Z,1.30
2022-12-16T08:17:51.008Z,1.00
2022-12-16T08:20:37.542Z,1.00
2022-12-16T08:23:22.610Z,0.90
2022-12-16T08:26:07.702Z,1.00
2022-12-16T08:28:53.863Z,0.90
2022-12-16T08:31:39.144Z,1.00
2022-12-16T08:34:24.369Z,0.90
2022-12-16T08:37:09.387Z,0.90
2022-12-16T08:40:17.604Z,1.00
2022-12-16T08:42:59.610Z,1.10
2022-12-16T08:45:44.681Z,1.00
2022-12-16T08:48:30.035Z,1.00
2022-12-16T08:51:15.034Z,1.20
2022-12-16T08:54:00.220Z,1.20
2022-12-16T08:56:45.157Z,1.40
2022-12-16T08:59:30.270Z,1.40
2022-12-16T09:02:15.511Z,1.50
2022-12-16T09:05:00.820Z,1.60
2022-12-16T09:07:45.993Z,1.60
2022-12-16T09:10:36.022Z,1.60
2022-12-16T09:13:28.643Z,1.60
2022-12-16T09:16:17.716Z,1.70
2022-12-16T09:19:04.693Z,1.60
2022-12-16T09:21:49.745Z,1.50
2022-12-16T09:24:51.647Z,1.60
2022-12-16T09:27:36.760Z,1.40
2022-12-16T09:30:21.857Z,1.40
2022-12-16T09:33:07.022Z,1.40
2022-12-16T09:35:52.205Z,1.40
2022-12-16T09:38:40.794Z,1.30
